sensor_id;sensor_type;location;lat;lon;timestamp;temperature;humidity
20171;DHT22;10245;51.344;6.620;2024-01-15T00:00:40;1.20;93.10
20171;DHT22;10245;51.344;6.620;2024-01-15T00:03:04;1.10;93.10
20171;DHT22;10245;51.344;6.620;2024-01-15T00:05:27;1.20;93.40
20171;DHT22;10245;51.344;6.620;2024-01-15T00:07:51;1.20;93.10
20171;DHT22;10245;51.344;6.620;2024-01-15T00:10:15;1.10;93.20
20171;DHT22;10245;51.344;6.620;2024-01-15T00:12:38;1.10;93.20
20171;DHT22;10245;51.344;6.620;2024-01-15T00:15:03;1.10;93.30
20171;DHT22;10245;51.344;6.620;2024-01-15T00:17:27;1.10;93.50
20171;DHT22;10245;51.344;6.620;2024-01-15T00:19:51;1.00;93.50
20171;DHT22;10245;51.344;6.620;2024-01-15T00:22:15;1.10;93.60
20171;DHT22;10245;51.344;6.620;2024-01-15T00:24:39;1.10;93.50
20171;DHT22;10245;51.344;6.620;2024-01-15T00:27:02;1.10;93.60
20171;DHT22;10245;51.344;6.620;2024-01-15T00:29:26;1.20;93.50
20171;DHT22;10245;51.344;6.620;2024-01-15T00:31:50;1.10;93.50
20171;DHT22;10245;51.344;6.620;2024-01-15T00:34:14;1.20;93.50
20171;DHT22;10245;51.344;6.620;2024-01-15T00:36:38;1.10;93.40
20171;DHT22;10245;51.344;6.620;2024-01-15T00:39:01;1.20;93.60
20171;DHT22;10245;51.344;6.620;2024-01-15T00:41:26;1.20;93.40
20171;DHT22;10245;51.344;6.620;2024-01-15T00:43:50;1.20;93.40
20171;DHT22;10245;51.344;6.620;2024-01-15T00:46:13;1.20;93.30
20171;DHT22;10245;51.344;6.620;2024-01-15T00:48:38;1.20;93.20
20171;DHT22;10245;51.344;6.620;2024-01-15T00:51:03;1.20;93.40
20171;DHT22;10245;51.344;6.620;2024-01-15T00:53:27;1.20;93.30
20171;DHT22;10245;51.344;6.620;2024-01-15T00:55:50;1.20;93.30
20171;DHT22;10245;51.344;6.620;2024-01-15T00:58:13;1.30;93.40
20171;DHT22;10245;51.344;6.620;2024-01-15T01:00:36;1.30;93.30
20171;DHT22;10245;51.344;6.620;2024-01-15T01:03:00;1.20;93.20
20171;DHT22;10245;51.344;6.620;2024-01-15T01:05:24;1.20;93.30
20171;DHT22;10245;51.344;6.620;2024-01-15T01:07:47;1.20;93.30
20171;DHT22;10245;51.344;6.620;2024-01-15T01:10:11;1.20;93.30
20171;DHT22;10245;51.344;6.620;2024-01-15T01:12:34;1.20;93.30
20171;DHT22;10245;51.344;6.620;2024-01-15T01:14:58;1.20;93.30
20171;DHT22;10245;51.344;6.620;2024-01-15T01:17:21;1.20;93.30
20171;DHT22;10245;51.344;6.620;2024-01-15T01:19:45;1.20;93.30
20171;DHT22;10245;51.344;6.620;2024-01-15T01:22:10;1.30;93.30
20171;DHT22;10245;51.344;6.620;2024-01-15T01:24:34;1.40;93.50
20171;DHT22;10245;51.344;6.620;2024-01-15T01:26:57;1.20;93.20
20171;DHT22;10245;51.344;6.620;2024-01-15T01:29:20;1.30;93.20
20171;DHT22;10245;51.344;6.620;2024-01-15T01:31:45;1.30;93.20
20171;DHT22;10245;51.344;6.620;2024-01-15T01:34:08;1.30;93.20
20171;DHT22;10245;51.344;6.620;2024-01-15T01:36:31;1.30;93.20
20171;DHT22;10245;51.344;6.620;2024-01-15T01:38:57;1.20;93.20
20171;DHT22;10245;51.344;6.620;2024-01-15T01:41:20;1.30;93.30
20171;DHT22;10245;51.344;6.620;2024-01-15T01:43:45;1.30;93.20
20171;DHT22;10245;51.344;6.620;2024-01-15T01:46:09;1.30;93.30
20171;DHT22;10245;51.344;6.620;2024-01-15T01:48:33;1.30;93.30
20171;DHT22;10245;51.344;6.620;2024-01-15T01:51:00;1.30;93.20
20171;DHT22;10245;51.344;6.620;2024-01-15T01:53:26;1.40;93.40
20171;DHT22;10245;51.344;6.620;2024-01-15T01:55:51;1.40;93.20
20171;DHT22;10245;51.344;6.620;2024-01-15T01:58:15;1.30;93.30
20171;DHT22;10245;51.344;6.620;2024-01-15T02:00:38;1.30;93.40
20171;DHT22;10245;51.344;6.620;2024-01-15T02:03:02;1.40;93.50
20171;DHT22;10245;51.344;6.620;2024-01-15T02:05:27;1.40;93.40
20171;DHT22;10245;51.344;6.620;2024-01-15T02:07:51;1.50;93.50
20171;DHT22;10245;51.344;6.620;2024-01-15T02:10:14;1.30;93.30
20171;DHT22;10245;51.344;6.620;2024-01-15T02:12:39;1.40;93.40
20171;DHT22;10245;51.344;6.620;2024-01-15T02:15:03;1.50;93.40
20171;DHT22;10245;51.344;6.620;2024-01-15T02:17:26;1.40;93.30
20171;DHT22;10245;51.344;6.620;2024-01-15T02:19:50;1.40;93.30
20171;DHT22;10245;51.344;6.620;2024-01-15T02:22:13;1.40;93.20
20171;DHT22;10245;51.344;6.620;2024-01-15T02:24:38;1.40;93.30
20171;DHT22;10245;51.344;6.620;2024-01-15T02:27:02;1.40;93.10
20171;DHT22;10245;51.344;6.620;2024-01-15T02:29:26;1.40;93.10
20171;DHT22;10245;51.344;6.620;2024-01-15T02:31:49;1.40;93.10
20171;DHT22;10245;51.344;6.620;2024-01-15T02:34:13;1.40;93.10
20171;DHT22;10245;51.344;6.620;2024-01-15T02:36:37;1.40;93.10
20171;DHT22;10245;51.344;6.620;2024-01-15T02:39:00;1.40;93.00
20171;DHT22;10245;51.344;6.620;2024-01-15T02:41:24;1.40;93.10
20171;DHT22;10245;51.344;6.620;2024-01-15T02:43:48;1.50;93.10
20171;DHT22;10245;51.344;6.620;2024-01-15T02:46:11;1.50;92.90
20171;DHT22;10245;51.344;6.620;2024-01-15T02:48:34;1.50;92.80
20171;DHT22;10245;51.344;6.620;2024-01-15T02:50:58;1.50;92.80
20171;DHT22;10245;51.344;6.620;2024-01-15T02:53:21;1.40;92.70
20171;DHT22;10245;51.344;6.620;2024-01-15T02:55:44;1.40;92.80
20171;DHT22;10245;51.344;6.620;2024-01-15T02:58:09;1.50;92.80
20171;DHT22;10245;51.344;6.620;2024-01-15T03:00:32;1.40;92.70
20171;DHT22;10245;51.344;6.620;2024-01-15T03:02:56;1.50;92.70
20171;DHT22;10245;51.344;6.620;2024-01-15T03:05:19;1.50;92.60
20171;DHT22;10245;51.344;6.620;2024-01-15T03:07:43;1.50;92.70
20171;DHT22;10245;51.344;6.620;2024-01-15T03:10:07;1.40;92.60
20171;DHT22;10245;51.344;6.620;2024-01-15T03:12:30;1.50;92.60
20171;DHT22;10245;51.344;6.620;2024-01-15T03:14:55;1.50;92.50
20171;DHT22;10245;51.344;6.620;2024-01-15T03:17:19;1.50;92.40
20171;DHT22;10245;51.344;6.620;2024-01-15T03:19:42;1.50;92.50
20171;DHT22;10245;51.344;6.620;2024-01-15T03:22:06;1.50;92.50
20171;DHT22;10245;51.344;6.620;2024-01-15T03:24:32;1.40;92.50
20171;DHT22;10245;51.344;6.620;2024-01-15T03:26:56;1.40;92.40
20171;DHT22;10245;51.344;6.620;2024-01-15T03:29:19;1.50;92.40
20171;DHT22;10245;51.344;6.620;2024-01-15T03:31:44;1.50;92.30
20171;DHT22;10245;51.344;6.620;2024-01-15T03:34:07;1.50;92.30
20171;DHT22;10245;51.344;6.620;2024-01-15T03:36:31;1.50;92.40
20171;DHT22;10245;51.344;6.620;2024-01-15T03:38:55;1.50;92.40
20171;DHT22;10245;51.344;6.620;2024-01-15T03:41:18;1.50;92.50
20171;DHT22;10245;51.344;6.620;2024-01-15T03:43:41;1.50;92.40
20171;DHT22;10245;51.344;6.620;2024-01-15T03:46:05;1.50;92.40
20171;DHT22;10245;51.344;6.620;2024-01-15T03:48:30;1.50;92.50
20171;DHT22;10245;51.344;6.620;2024-01-15T03:50:53;1.50;92.30
20171;DHT22;10245;51.344;6.620;2024-01-15T03:53:17;1.50;92.40
20171;DHT22;10245;51.344;6.620;2024-01-15T03:55:40;1.50;92.40
20171;DHT22;10245;51.344;6.620;2024-01-15T03:58:05;1.50;92.30
20171;DHT22;10245;51.344;6.620;2024-01-15T04:00:28;1.50;92.40
20171;DHT22;10245;51.344;6.620;2024-01-15T04:02:51;1.50;92.30
20171;DHT22;10245;51.344;6.620;2024-01-15T04:05:17;1.50;92.30
20171;DHT22;10245;51.344;6.620;2024-01-15T04:07:40;1.40;92.40
20171;DHT22;10245;51.344;6.620;2024-01-15T04:10:04;1.40;92.30
20171;DHT22;10245;51.344;6.620;2024-01-15T04:12:28;1.40;92.30
20171;DHT22;10245;51.344;6.620;2024-01-15T04:14:51;1.40;92.40
20171;DHT22;10245;51.344;6.620;2024-01-15T04:17:15;1.40;92.50
20171;DHT22;10245;51.344;6.620;2024-01-15T04:19:39;1.40;92.40
20171;DHT22;10245;51.344;6.620;2024-01-15T04:22:07;1.30;92.20
20171;DHT22;10245;51.344;6.620;2024-01-15T04:24:31;1.30;92.20
20171;DHT22;10245;51.344;6.620;2024-01-15T04:26:55;1.30;92.20
20171;DHT22;10245;51.344;6.620;2024-01-15T04:29:18;1.40;92.20
20171;DHT22;10245;51.344;6.620;2024-01-15T04:31:41;1.40;92.20
20171;DHT22;10245;51.344;6.620;2024-01-15T04:34:05;1.30;92.20
20171;DHT22;10245;51.344;6.620;2024-01-15T04:36:28;1.40;92.30
20171;DHT22;10245;51.344;6.620;2024-01-15T04:38:53;1.30;92.20
20171;DHT22;10245;51.344;6.620;2024-01-15T04:41:16;1.30;92.30
20171;DHT22;10245;51.344;6.620;2024-01-15T04:43:40;1.40;92.40
20171;DHT22;10245;51.344;6.620;2024-01-15T04:46:05;1.40;92.20
20171;DHT22;10245;51.344;6.620;2024-01-15T04:48:28;1.40;92.20
20171;DHT22;10245;51.344;6.620;2024-01-15T04:50:52;1.40;92.10
20171;DHT22;10245;51.344;6.620;2024-01-15T04:53:16;1.40;92.00
20171;DHT22;10245;51.344;6.620;2024-01-15T04:55:41;1.50;92.10
20171;DHT22;10245;51.344;6.620;2024-01-15T04:58:04;1.50;92.10
20171;DHT22;10245;51.344;6.620;2024-01-15T05:00:27;1.50;92.00
20171;DHT22;10245;51.344;6.620;2024-01-15T05:02:50;1.50;91.90
20171;DHT22;10245;51.344;6.620;2024-01-15T05:05:14;1.50;92.00
20171;DHT22;10245;51.344;6.620;2024-01-15T05:07:38;1.50;92.00
20171;DHT22;10245;51.344;6.620;2024-01-15T05:10:01;1.50;91.90
20171;DHT22;10245;51.344;6.620;2024-01-15T05:12:26;1.50;92.00
20171;DHT22;10245;51.344;6.620;2024-01-15T05:14:49;1.50;91.90
20171;DHT22;10245;51.344;6.620;2024-01-15T05:17:12;1.50;92.00
20171;DHT22;10245;51.344;6.620;2024-01-15T05:19:35;1.60;92.20
20171;DHT22;10245;51.344;6.620;2024-01-15T05:21:59;1.60;91.90
20171;DHT22;10245;51.344;6.620;2024-01-15T05:24:22;1.50;91.80
20171;DHT22;10245;51.344;6.620;2024-01-15T05:26:45;1.50;91.90
20171;DHT22;10245;51.344;6.620;2024-01-15T05:29:10;1.50;91.80
20171;DHT22;10245;51.344;6.620;2024-01-15T05:31:33;1.50;92.20
20171;DHT22;10245;51.344;6.620;2024-01-15T05:33:58;1.50;91.90
20171;DHT22;10245;51.344;6.620;2024-01-15T05:36:22;1.50;91.80
20171;DHT22;10245;51.344;6.620;2024-01-15T05:38:45;1.50;91.80
20171;DHT22;10245;51.344;6.620;2024-01-15T05:41:11;1.60;91.80
20171;DHT22;10245;51.344;6.620;2024-01-15T05:43:35;1.50;91.70
20171;DHT22;10245;51.344;6.620;2024-01-15T05:45:59;1.50;91.70
20171;DHT22;10245;51.344;6.620;2024-01-15T05:48:23;1.50;91.90
20171;DHT22;10245;51.344;6.620;2024-01-15T05:50:47;1.60;91.80
20171;DHT22;10245;51.344;6.620;2024-01-15T05:53:10;1.50;91.60
20171;DHT22;10245;51.344;6.620;2024-01-15T05:55:35;1.50;91.60
20171;DHT22;10245;51.344;6.620;2024-01-15T05:57:59;1.60;91.70
20171;DHT22;10245;51.344;6.620;2024-01-15T06:00:23;1.50;91.60
20171;DHT22;10245;51.344;6.620;2024-01-15T06:02:47;1.50;91.50
20171;DHT22;10245;51.344;6.620;2024-01-15T06:05:11;1.50;91.40
20171;DHT22;10245;51.344;6.620;2024-01-15T06:07:34;1.50;91.50
20171;DHT22;10245;51.344;6.620;2024-01-15T06:09:58;1.50;91.60
20171;DHT22;10245;51.344;6.620;2024-01-15T06:12:22;1.50;91.60
20171;DHT22;10245;51.344;6.620;2024-01-15T06:14:46;1.50;91.60
20171;DHT22;10245;51.344;6.620;2024-01-15T06:17:09;1.50;91.70
20171;DHT22;10245;51.344;6.620;2024-01-15T06:19:34;1.50;91.60
20171;DHT22;10245;51.344;6.620;2024-01-15T06:21:58;1.50;91.60
20171;DHT22;10245;51.344;6.620;2024-01-15T06:24:22;1.50;91.70
20171;DHT22;10245;51.344;6.620;2024-01-15T06:26:46;1.60;91.40
20171;DHT22;10245;51.344;6.620;2024-01-15T06:29:09;1.60;91.30
20171;DHT22;10245;51.344;6.620;2024-01-15T06:31:33;1.60;91.30
20171;DHT22;10245;51.344;6.620;2024-01-15T06:33:56;1.60;91.40
20171;DHT22;10245;51.344;6.620;2024-01-15T06:36:21;1.70;91.50
20171;DHT22;10245;51.344;6.620;2024-01-15T06:38:45;1.70;91.20
20171;DHT22;10245;51.344;6.620;2024-01-15T06:41:08;1.60;91.30
20171;DHT22;10245;51.344;6.620;2024-01-15T06:43:31;1.60;91.30
20171;DHT22;10245;51.344;6.620;2024-01-15T06:45:55;1.70;91.40
20171;DHT22;10245;51.344;6.620;2024-01-15T06:48:18;1.50;91.40
20171;DHT22;10245;51.344;6.620;2024-01-15T06:50:43;1.50;91.50
20171;DHT22;10245;51.344;6.620;2024-01-15T06:53:07;1.30;91.80
20171;DHT22;10245;51.344;6.620;2024-01-15T06:55:31;1.30;92.40
20171;DHT22;10245;51.344;6.620;2024-01-15T06:57:54;1.30;92.50
20171;DHT22;10245;51.344;6.620;2024-01-15T07:00:18;1.20;92.70
20171;DHT22;10245;51.344;6.620;2024-01-15T07:02:42;1.40;93.00
20171;DHT22;10245;51.344;6.620;2024-01-15T07:05:05;1.30;92.80
20171;DHT22;10245;51.344;6.620;2024-01-15T07:07:29;1.40;92.90
20171;DHT22;10245;51.344;6.620;2024-01-15T07:09:54;1.40;92.90
20171;DHT22;10245;51.344;6.620;2024-01-15T07:12:18;1.40;92.90
20171;DHT22;10245;51.344;6.620;2024-01-15T07:14:41;1.50;92.90
20171;DHT22;10245;51.344;6.620;2024-01-15T07:17:05;1.50;92.70
20171;DHT22;10245;51.344;6.620;2024-01-15T07:19:29;1.50;92.70
20171;DHT22;10245;51.344;6.620;2024-01-15T07:21:52;1.50;92.70
20171;DHT22;10245;51.344;6.620;2024-01-15T07:24:18;1.50;92.70
20171;DHT22;10245;51.344;6.620;2024-01-15T07:26:44;1.50;92.80
20171;DHT22;10245;51.344;6.620;2024-01-15T07:29:08;1.50;92.50
20171;DHT22;10245;51.344;6.620;2024-01-15T07:31:31;1.60;92.60
20171;DHT22;10245;51.344;6.620;2024-01-15T07:33:55;1.60;92.20
20171;DHT22;10245;51.344;6.620;2024-01-15T07:36:19;1.60;92.30
20171;DHT22;10245;51.344;6.620;2024-01-15T07:38:42;1.50;92.20
20171;DHT22;10245;51.344;6.620;2024-01-15T07:41:05;1.50;92.40
20171;DHT22;10245;51.344;6.620;2024-01-15T07:43:31;1.50;92.50
20171;DHT22;10245;51.344;6.620;2024-01-15T07:45:54;1.50;92.70
20171;DHT22;10245;51.344;6.620;2024-01-15T07:48:17;1.40;92.80
20171;DHT22;10245;51.344;6.620;2024-01-15T07:50:41;1.30;93.00
20171;DHT22;10245;51.344;6.620;2024-01-15T07:53:04;1.20;93.20
20171;DHT22;10245;51.344;6.620;2024-01-15T07:55:28;1.20;93.50
20171;DHT22;10245;51.344;6.620;2024-01-15T07:57:51;1.10;93.70
20171;DHT22;10245;51.344;6.620;2024-01-15T08:00:28;1.10;93.70
20171;DHT22;10245;51.344;6.620;2024-01-15T08:02:52;1.10;93.80
20171;DHT22;10245;51.344;6.620;2024-01-15T08:05:15;1.20;93.90
20171;DHT22;10245;51.344;6.620;2024-01-15T08:07:38;1.20;93.70
20171;DHT22;10245;51.344;6.620;2024-01-15T08:10:01;1.20;93.70
20171;DHT22;10245;51.344;6.620;2024-01-15T08:12:25;1.10;93.60
20171;DHT22;10245;51.344;6.620;2024-01-15T08:14:49;1.10;93.70
20171;DHT22;10245;51.344;6.620;2024-01-15T08:17:13;1.20;93.80
20171;DHT22;10245;51.344;6.620;2024-01-15T08:19:37;1.00;93.70
20171;DHT22;10245;51.344;6.620;2024-01-15T08:22:03;1.00;93.80
20171;DHT22;10245;51.344;6.620;2024-01-15T08:24:27;1.10;93.90
20171;DHT22;10245;51.344;6.620;2024-01-15T08:26:50;1.00;93.80
20171;DHT22;10245;51.344;6.620;2024-01-15T08:29:13;1.00;93.90
20171;DHT22;10245;51.344;6.620;2024-01-15T08:31:37;1.00;94.00
20171;DHT22;10245;51.344;6.620;2024-01-15T08:34:05;1.00;94.00
20171;DHT22;10245;51.344;6.620;2024-01-15T08:36:30;1.00;94.00
20171;DHT22;10245;51.344;6.620;2024-01-15T08:38:54;1.00;94.10
20171;DHT22;10245;51.344;6.620;2024-01-15T08:41:17;1.00;94.00
20171;DHT22;10245;51.344;6.620;2024-01-15T08:43:41;1.10;94.00
20171;DHT22;10245;51.344;6.620;2024-01-15T08:46:04;1.00;94.00
20171;DHT22;10245;51.344;6.620;2024-01-15T08:48:27;1.10;94.10
20171;DHT22;10245;51.344;6.620;2024-01-15T08:50:52;1.00;94.00
20171;DHT22;10245;51.344;6.620;2024-01-15T08:53:16;1.10;94.00
20171;DHT22;10245;51.344;6.620;2024-01-15T08:55:40;1.10;94.10
20171;DHT22;10245;51.344;6.620;2024-01-15T08:58:04;1.10;94.20
20171;DHT22;10245;51.344;6.620;2024-01-15T09:00:28;1.00;94.00
20171;DHT22;10245;51.344;6.620;2024-01-15T09:02:51;1.00;94.20
20171;DHT22;10245;51.344;6.620;2024-01-15T09:05:15;1.00;94.10
20171;DHT22;10245;51.344;6.620;2024-01-15T09:07:40;0.90;94.00
20171;DHT22;10245;51.344;6.620;2024-01-15T09:10:04;0.90;94.20
20171;DHT22;10245;51.344;6.620;2024-01-15T09:12:28;0.90;94.30
20171;DHT22;10245;51.344;6.620;2024-01-15T09:14:52;0.80;94.30
20171;DHT22;10245;51.344;6.620;2024-01-15T09:17:16;0.90;94.40
20171;DHT22;10245;51.344;6.620;2024-01-15T09:19:39;0.90;94.50
20171;DHT22;10245;51.344;6.620;2024-01-15T09:22:03;0.90;94.30
20171;DHT22;10245;51.344;6.620;2024-01-15T09:24:28;1.00;94.40
20171;DHT22;10245;51.344;6.620;2024-01-15T09:26:51;1.00;94.30
20171;DHT22;10245;51.344;6.620;2024-01-15T09:29:15;1.10;94.50
20171;DHT22;10245;51.344;6.620;2024-01-15T09:31:39;1.10;94.10
20171;DHT22;10245;51.344;6.620;2024-01-15T09:34:05;1.10;94.10
20171;DHT22;10245;51.344;6.620;2024-01-15T09:36:28;1.00;94.10
20171;DHT22;10245;51.344;6.620;2024-01-15T09:38:51;1.00;94.20
20171;DHT22;10245;51.344;6.620;2024-01-15T09:41:16;1.10;94.10
20171;DHT22;10245;51.344;6.620;2024-01-15T09:43:40;1.10;94.40
20171;DHT22;10245;51.344;6.620;2024-01-15T09:46:03;1.00;94.20
20171;DHT22;10245;51.344;6.620;2024-01-15T09:48:27;1.00;94.20
20171;DHT22;10245;51.344;6.620;2024-01-15T09:50:50;1.10;94.20
20171;DHT22;10245;51.344;6.620;2024-01-15T09:53:15;1.20;94.30
20171;DHT22;10245;51.344;6.620;2024-01-15T09:55:38;1.20;94.20
20171;DHT22;10245;51.344;6.620;2024-01-15T09:58:04;1.10;93.90
20171;DHT22;10245;51.344;6.620;2024-01-15T10:00:28;1.10;94.00
20171;DHT22;10245;51.344;6.620;2024-01-15T10:02:53;1.00;93.90
20171;DHT22;10245;51.344;6.620;2024-01-15T10:05:16;1.10;94.00
20171;DHT22;10245;51.344;6.620;2024-01-15T10:07:40;1.20;94.20
20171;DHT22;10245;51.344;6.620;2024-01-15T10:10:05;1.00;94.00
20171;DHT22;10245;51.344;6.620;2024-01-15T10:12:29;1.10;94.10
20171;DHT22;10245;51.344;6.620;2024-01-15T10:14:54;1.20;94.10
20171;DHT22;10245;51.344;6.620;2024-01-15T10:17:17;1.20;94.10
20171;DHT22;10245;51.344;6.620;2024-01-15T10:19:40;1.20;94.10
20171;DHT22;10245;51.344;6.620;2024-01-15T10:22:09;1.10;94.00
20171;DHT22;10245;51.344;6.620;2024-01-15T10:24:35;1.30;94.10
20171;DHT22;10245;51.344;6.620;2024-01-15T10:27:05;1.20;93.80
20171;DHT22;10245;51.344;6.620;2024-01-15T10:29:29;1.10;93.80
20171;DHT22;10245;51.344;6.620;2024-01-15T10:31:54;1.20;94.00
20171;DHT22;10245;51.344;6.620;2024-01-15T10:34:19;1.20;93.90
20171;DHT22;10245;51.344;6.620;2024-01-15T10:36:45;1.20;93.90
20171;DHT22;10245;51.344;6.620;2024-01-15T10:39:14;1.20;93.90
20171;DHT22;10245;51.344;6.620;2024-01-15T10:41:37;1.20;94.00
20171;DHT22;10245;51.344;6.620;2024-01-15T10:44:01;1.30;94.10
20171;DHT22;10245;51.344;6.620;2024-01-15T10:46:25;1.20;93.90
20171;DHT22;10245;51.344;6.620;2024-01-15T10:48:49;1.20;94.00
20171;DHT22;10245;51.344;6.620;2024-01-15T10:51:13;1.20;94.00
20171;DHT22;10245;51.344;6.620;2024-01-15T10:53:39;1.30;94.00
20171;DHT22;10245;51.344;6.620;2024-01-15T10:56:04;1.30;94.00
20171;DHT22;10245;51.344;6.620;2024-01-15T10:58:29;1.30;94.00
20171;DHT22;10245;51.344;6.620;2024-01-15T11:00:54;1.20;94.00
20171;DHT22;10245;51.344;6.620;2024-01-15T11:03:18;1.30;94.00
20171;DHT22;10245;51.344;6.620;2024-01-15T11:05:44;1.30;93.90
20171;DHT22;10245;51.344;6.620;2024-01-15T11:08:09;1.30;93.90
20171;DHT22;10245;51.344;6.620;2024-01-15T11:10:41;1.30;93.80
20171;DHT22;10245;51.344;6.620;2024-01-15T11:13:09;1.40;93.70
20171;DHT22;10245;51.344;6.620;2024-01-15T11:15:57;1.30;93.70
20171;DHT22;10245;51.344;6.620;2024-01-15T11:18:21;1.40;93.60
20171;DHT22;10245;51.344;6.620;2024-01-15T11:23:46;1.50;93.70
20171;DHT22;10245;51.344;6.620;2024-01-15T11:26:28;1.60;93.40
20171;DHT22;10245;51.344;6.620;2024-01-15T11:28:52;1.70;93.30
20171;DHT22;10245;51.344;6.620;2024-01-15T11:31:16;1.70;92.90
20171;DHT22;10245;51.344;6.620;2024-01-15T11:33:48;1.90;92.90
20171;DHT22;10245;51.344;6.620;2024-01-15T11:36:12;1.90;92.40
20171;DHT22;10245;51.344;6.620;2024-01-15T11:38:38;2.00;92.50
20171;DHT22;10245;51.344;6.620;2024-01-15T11:41:01;1.90;92.30
20171;DHT22;10245;51.344;6.620;2024-01-15T11:43:37;1.90;91.80
20171;DHT22;10245;51.344;6.620;2024-01-15T11:46:02;2.00;92.10
20171;DHT22;10245;51.344;6.620;2024-01-15T11:48:37;2.00;91.30
20171;DHT22;10245;51.344;6.620;2024-01-15T11:51:08;2.00;91.40
20171;DHT22;10245;51.344;6.620;2024-01-15T11:53:40;2.10;91.20
20171;DHT22;10245;51.344;6.620;2024-01-15T11:56:15;2.00;91.20
20171;DHT22;10245;51.344;6.620;2024-01-15T11:58:40;2.10;91.40
20171;DHT22;10245;51.344;6.620;2024-01-15T12:01:03;2.10;90.90
20171;DHT22;10245;51.344;6.620;2024-01-15T12:03:27;2.20;90.80
20171;DHT22;10245;51.344;6.620;2024-01-15T12:05:52;2.20;90.50
20171;DHT22;10245;51.344;6.620;2024-01-15T12:08:15;2.20;90.80
20171;DHT22;10245;51.344;6.620;2024-01-15T12:10:46;2.20;90.70
20171;DHT22;10245;51.344;6.620;2024-01-15T12:13:11;2.20;90.50
20171;DHT22;10245;51.344;6.620;2024-01-15T12:15:36;2.30;90.70
20171;DHT22;10245;51.344;6.620;2024-01-15T12:18:01;2.30;90.00
20171;DHT22;10245;51.344;6.620;2024-01-15T12:20:25;2.30;89.70
20171;DHT22;10245;51.344;6.620;2024-01-15T12:22:49;2.40;90.10
20171;DHT22;10245;51.344;6.620;2024-01-15T12:25:24;2.40;89.80
20171;DHT22;10245;51.344;6.620;2024-01-15T12:27:50;2.50;89.90
20171;DHT22;10245;51.344;6.620;2024-01-15T12:30:15;2.80;90.20
20171;DHT22;10245;51.344;6.620;2024-01-15T12:32:40;2.50;89.00
20171;DHT22;10245;51.344;6.620;2024-01-15T12:35:05;2.60;89.30
20171;DHT22;10245;51.344;6.620;2024-01-15T12:37:29;2.50;89.60
20171;DHT22;10245;51.344;6.620;2024-01-15T12:39:54;2.40;89.00
20171;DHT22;10245;51.344;6.620;2024-01-15T12:42:18;2.50;89.60
20171;DHT22;10245;51.344;6.620;2024-01-15T12:44:43;2.50;89.50
20171;DHT22;10245;51.344;6.620;2024-01-15T12:47:07;2.50;89.50
20171;DHT22;10245;51.344;6.620;2024-01-15T12:49:30;2.40;89.40
20171;DHT22;10245;51.344;6.620;2024-01-15T12:51:56;2.30;89.00
20171;DHT22;10245;51.344;6.620;2024-01-15T12:54:20;2.30;89.30
20171;DHT22;10245;51.344;6.620;2024-01-15T12:56:43;2.50;89.80
20171;DHT22;10245;51.344;6.620;2024-01-15T12:59:06;2.50;89.30
20171;DHT22;10245;51.344;6.620;2024-01-15T13:01:31;2.30;89.10
20171;DHT22;10245;51.344;6.620;2024-01-15T13:03:55;2.20;89.30
20171;DHT22;10245;51.344;6.620;2024-01-15T13:06:18;2.20;89.50
20171;DHT22;10245;51.344;6.620;2024-01-15T13:08:42;2.00;89.90
20171;DHT22;10245;51.344;6.620;2024-01-15T13:11:05;2.10;90.00
20171;DHT22;10245;51.344;6.620;2024-01-15T13:13:28;2.20;90.30
20171;DHT22;10245;51.344;6.620;2024-01-15T13:15:52;2.20;90.40
20171;DHT22;10245;51.344;6.620;2024-01-15T13:18:18;2.20;90.50
20171;DHT22;10245;51.344;6.620;2024-01-15T13:20:41;2.10;90.20
20171;DHT22;10245;51.344;6.620;2024-01-15T13:23:05;2.00;90.30
20171;DHT22;10245;51.344;6.620;2024-01-15T13:25:28;2.10;90.80
20171;DHT22;10245;51.344;6.620;2024-01-15T13:27:51;2.20;90.80
20171;DHT22;10245;51.344;6.620;2024-01-15T13:30:16;2.20;90.60
20171;DHT22;10245;51.344;6.620;2024-01-15T13:32:40;2.00;90.40
20171;DHT22;10245;51.344;6.620;2024-01-15T13:35:05;2.00;90.60
20171;DHT22;10245;51.344;6.620;2024-01-15T13:37:32;2.00;90.90
20171;DHT22;10245;51.344;6.620;2024-01-15T13:39:56;2.10;91.00
20171;DHT22;10245;51.344;6.620;2024-01-15T13:42:20;1.90;91.10
20171;DHT22;10245;51.344;6.620;2024-01-15T13:44:44;1.90;91.20
20171;DHT22;10245;51.344;6.620;2024-01-15T13:47:08;2.00;91.20
20171;DHT22;10245;51.344;6.620;2024-01-15T13:49:32;1.90;91.20
20171;DHT22;10245;51.344;6.620;2024-01-15T13:51:58;1.90;90.80
20171;DHT22;10245;51.344;6.620;2024-01-15T13:54:21;2.00;90.70
20171;DHT22;10245;51.344;6.620;2024-01-15T13:56:54;2.00;90.60
20171;DHT22;10245;51.344;6.620;2024-01-15T13:59:18;2.00;90.60
20171;DHT22;10245;51.344;6.620;2024-01-15T14:01:42;1.90;90.80
20171;DHT22;10245;51.344;6.620;2024-01-15T14:04:05;1.90;90.70
20171;DHT22;10245;51.344;6.620;2024-01-15T14:06:29;1.90;90.40
20171;DHT22;10245;51.344;6.620;2024-01-15T14:08:53;2.00;90.20
20171;DHT22;10245;51.344;6.620;2024-01-15T14:11:17;1.90;89.90
20171;DHT22;10245;51.344;6.620;2024-01-15T14:13:40;2.00;89.90
20171;DHT22;10245;51.344;6.620;2024-01-15T14:16:04;2.00;90.10
20171;DHT22;10245;51.344;6.620;2024-01-15T14:18:28;2.00;89.90
20171;DHT22;10245;51.344;6.620;2024-01-15T14:20:55;2.00;90.20
20171;DHT22;10245;51.344;6.620;2024-01-15T14:23:19;2.00;90.20
20171;DHT22;10245;51.344;6.620;2024-01-15T14:25:43;2.00;90.30
20171;DHT22;10245;51.344;6.620;2024-01-15T14:28:07;1.90;90.20
20171;DHT22;10245;51.344;6.620;2024-01-15T14:30:30;1.90;90.50
20171;DHT22;10245;51.344;6.620;2024-01-15T14:32:53;2.00;90.60
20171;DHT22;10245;51.344;6.620;2024-01-15T14:35:17;1.90;90.30
20171;DHT22;10245;51.344;6.620;2024-01-15T14:37:40;1.90;90.20
20171;DHT22;10245;51.344;6.620;2024-01-15T14:40:04;1.90;90.20
20171;DHT22;10245;51.344;6.620;2024-01-15T14:42:31;1.90;90.20
20171;DHT22;10245;51.344;6.620;2024-01-15T14:44:54;1.90;90.00
20171;DHT22;10245;51.344;6.620;2024-01-15T14:47:18;1.80;89.80
20171;DHT22;10245;51.344;6.620;2024-01-15T14:49:46;1.90;90.00
20171;DHT22;10245;51.344;6.620;2024-01-15T14:52:09;1.80;90.10
20171;DHT22;10245;51.344;6.620;2024-01-15T14:54:31;1.90;90.10
20171;DHT22;10245;51.344;6.620;2024-01-15T14:56:55;1.80;90.30
20171;DHT22;10245;51.344;6.620;2024-01-15T14:59:20;1.90;90.60
20171;DHT22;10245;51.344;6.620;2024-01-15T15:01:43;1.70;90.60
20171;DHT22;10245;51.344;6.620;2024-01-15T15:04:07;1.70;90.90
20171;DHT22;10245;51.344;6.620;2024-01-15T15:06:32;1.60;91.40
20171;DHT22;10245;51.344;6.620;2024-01-15T15:08:56;1.50;91.90
20171;DHT22;10245;51.344;6.620;2024-01-15T15:11:21;1.50;92.10
20171;DHT22;10245;51.344;6.620;2024-01-15T15:13:45;1.40;92.20
20171;DHT22;10245;51.344;6.620;2024-01-15T15:16:10;1.40;92.60
20171;DHT22;10245;51.344;6.620;2024-01-15T15:18:35;1.30;92.40
20171;DHT22;10245;51.344;6.620;2024-01-15T15:20:58;1.30;92.80
20171;DHT22;10245;51.344;6.620;2024-01-15T15:23:22;1.20;92.90
20171;DHT22;10245;51.344;6.620;2024-01-15T15:25:46;1.20;93.00
20171;DHT22;10245;51.344;6.620;2024-01-15T15:28:09;1.30;93.10